Detall de PIREP

Printer-friendly versionPDF version

[2010/08/20 17:56:00]
Flight IATA:CT0001
Pilot Number:041
Company ICAO:CAT
Aircraft Type:F28/A
PAX:68
Departing Airport: LELC
Destination Airport: LEMH
Alternate Airport:LEPA
Online: VATSIM
Route:ALT B46 SUMMO B46 MITOS B46 BRUNO B46 IZA B46 MJV
Flight Level:FL180
No Slew and time accel
No pause
Crash detect
Detect pilot in Cockpit between each 30 and 45 minutes
17:56 Zero fuel Weight: 57627 Lbs, Fuel Weight: 10914 Lbs
17:56 VATSIM:LELC 201700Z 07005KT 020V130 CAVOK 27/21 Q1020 NOSIG
17:56 VATSIM:LEMH 201730Z 01013KT 340V040 9999 FEW018 26/21 Q1020
17:56 VOICE CATALONIAN
17:59 Parking Brakes off
18:10 Take-off
18:10 Take off Weight: 67947 Lbs
18:10 Wind: 055º @ 004 Knots Heading: 045º
18:10 POS N37º 46´ 47´´ W000º 48´ 20´´
18:10 Gear Up: 168 Knots
18:10 Flaps:2 at 168 Knots
18:11 Flaps:1 at 252 Knots
18:11 Flaps:0 at 277 Knots
18:22 TOC
18:22 Fuel Weight: 8946 Lb
18:25 Wind:241º@015 Knots Heading: 053º Ground Speed: 401 Knots Altitude 18172 ft
18:40 Wind:252º@021 Knots Heading: 071º Ground Speed: 405 Knots Altitude 18156 ft
18:46 TOD
18:46 Fuel Weight: 7018 Lb
18:55 Wind:355º@005 Knots Heading: 048º Ground Speed: 269 Knots Altitude 2916 ft
18:56 Flaps:1 at 217 Knots
18:56 Flaps:2 at 201 Knots
18:56 Flaps:3 at 201 Knots
18:56 Gear Down: 197 Knots
18:56 Flaps:4 at 196 Knots
18:57 Flaps:3 at 171 Knots
18:57 Flaps:4 at 171 Knots
18:59 TouchDown:Rate -87 ft/min Speed: 127 Knots
18:59 VATSIM:LEMH 201830Z 02013KT 9999 FEW018 25/21 Q1020
18:59 Land
18:59 Wind:021º@012 Knots
18:59 Heading: 010º
18:59 Flight Duration: 00:49
18:59 Landing Weight: 64316 Lbs
18:59 POS N39º 51´ 53´´ E004º 13´ 08´´
19:03 Parking brakes on
19:03 Block to Block Duration: 01:04
19:03 Final Fuel: 6534 Lbls
19:03 Spent Fuel: 4380 Lbls
19:03 Flight Length: 275 NM
19:03 TOD Land Length: 58 NM

Exportar CSV

Powered by Drupal - Modified by Danger4k